sensor_id;sensor_type;location;lat;lon;timestamp;pressure;altitude;pressure_sealevel;temperature;humidity
20860;BME280;10590;48.154;11.514;2023-01-29T00:03:51;96545.97;;;-0.09;83.93
20860;BME280;10590;48.154;11.514;2023-01-29T00:08:54;96545.81;;;-0.26;83.57
20860;BME280;10590;48.154;11.514;2023-01-29T00:13:56;96547.78;;;-0.10;83.00
20860;BME280;10590;48.154;11.514;2023-01-29T00:18:59;96547.22;;;-0.12;83.38
20860;BME280;10590;48.154;11.514;2023-01-29T00:24:03;96552.03;;;-0.09;83.33
20860;BME280;10590;48.154;11.514;2023-01-29T00:29:04;96554.06;;;-0.11;83.89
20860;BME280;10590;48.154;11.514;2023-01-29T00:34:06;96560.91;;;-0.10;84.11
20860;BME280;10590;48.154;11.514;2023-01-29T00:39:09;96560.34;;;-0.12;84.18
20860;BME280;10590;48.154;11.514;2023-01-29T00:44:11;96555.53;;;-0.15;84.10
20860;BME280;10590;48.154;11.514;2023-01-29T00:49:30;96556.56;;;-0.16;83.49
20860;BME280;10590;48.154;11.514;2023-01-29T00:54:34;96556.31;;;-0.26;83.27
20860;BME280;10590;48.154;11.514;2023-01-29T00:59:35;96562.97;;;-0.12;82.53
20860;BME280;10590;48.154;11.514;2023-01-29T01:04:37;96561.91;;;-0.22;82.65
20860;BME280;10590;48.154;11.514;2023-01-29T01:09:40;96555.72;;;-0.28;83.22
20860;BME280;10590;48.154;11.514;2023-01-29T01:14:59;96560.97;;;-0.28;83.00
20860;BME280;10590;48.154;11.514;2023-01-29T01:20:01;96566.97;;;-0.39;83.81
20860;BME280;10590;48.154;11.514;2023-01-29T01:25:05;96563.63;;;-0.16;81.76
20860;BME280;10590;48.154;11.514;2023-01-29T01:30:10;96571.09;;;-0.02;82.55
20860;BME280;10590;48.154;11.514;2023-01-29T01:35:12;96575.75;;;-0.04;82.35
20860;BME280;10590;48.154;11.514;2023-01-29T01:40:17;96575.94;;;-0.17;82.41
20860;BME280;10590;48.154;11.514;2023-01-29T01:45:21;96573.91;;;-0.15;80.59
20860;BME280;10590;48.154;11.514;2023-01-29T01:50:28;96565.25;;;-0.04;81.12
20860;BME280;10590;48.154;11.514;2023-01-29T01:55:33;96564.09;;;-0.08;80.83
20860;BME280;10590;48.154;11.514;2023-01-29T02:00:37;96574.53;;;-0.31;80.75
20860;BME280;10590;48.154;11.514;2023-01-29T02:05:40;96569.41;;;-0.26;80.05
20860;BME280;10590;48.154;11.514;2023-01-29T02:11:00;96568.75;;;-0.21;79.14
20860;BME280;10590;48.154;11.514;2023-01-29T02:16:02;96575.09;;;-0.29;79.29
20860;BME280;10590;48.154;11.514;2023-01-29T02:21:17;96589.19;;;-0.12;78.91
20860;BME280;10590;48.154;11.514;2023-01-29T02:26:49;96580.41;;;-0.06;79.32
20860;BME280;10590;48.154;11.514;2023-01-29T02:32:07;96576.28;;;-0.13;78.23
20860;BME280;10590;48.154;11.514;2023-01-29T02:37:11;96569.81;;;-0.11;78.01
20860;BME280;10590;48.154;11.514;2023-01-29T02:42:20;96567.44;;;-0.01;76.20
20860;BME280;10590;48.154;11.514;2023-01-29T02:47:31;96550.03;;;-0.25;78.03
20860;BME280;10590;48.154;11.514;2023-01-29T02:52:38;96548.69;;;-0.16;77.48
20860;BME280;10590;48.154;11.514;2023-01-29T02:57:45;96548.22;;;-0.24;78.09
20860;BME280;10590;48.154;11.514;2023-01-29T03:02:55;96540.72;;;-0.09;76.80
20860;BME280;10590;48.154;11.514;2023-01-29T03:08:01;96539.94;;;-0.10;75.11
20860;BME280;10590;48.154;11.514;2023-01-29T03:13:09;96547.78;;;-0.10;74.82
20860;BME280;10590;48.154;11.514;2023-01-29T03:18:17;96550.47;;;0.02;76.11
20860;BME280;10590;48.154;11.514;2023-01-29T03:23:24;96546.16;;;0.08;76.06
20860;BME280;10590;48.154;11.514;2023-01-29T03:28:43;96561.09;;;0.19;75.36
20860;BME280;10590;48.154;11.514;2023-01-29T03:34:07;96564.75;;;0.18;76.11
20860;BME280;10590;48.154;11.514;2023-01-29T03:39:16;96562.25;;;0.23;75.45
20860;BME280;10590;48.154;11.514;2023-01-29T03:44:20;96561.19;;;0.01;75.84
20860;BME280;10590;48.154;11.514;2023-01-29T03:49:36;96535.13;;;-0.13;75.90
20860;BME280;10590;48.154;11.514;2023-01-29T03:54:52;96536.91;;;0.05;75.81
20860;BME280;10590;48.154;11.514;2023-01-29T04:00:01;96522.13;;;-0.08;75.21
20860;BME280;10590;48.154;11.514;2023-01-29T04:05:10;96528.94;;;-0.60;75.50
20860;BME280;10590;48.154;11.514;2023-01-29T04:10:16;96525.97;;;-0.63;76.98
20860;BME280;10590;48.154;11.514;2023-01-29T04:15:21;96512.16;;;-0.41;76.34
20860;BME280;10590;48.154;11.514;2023-01-29T04:20:25;96518.22;;;-0.28;77.55
20860;BME280;10590;48.154;11.514;2023-01-29T04:25:30;96506.59;;;-0.21;76.31
20860;BME280;10590;48.154;11.514;2023-01-29T04:30:41;96528.50;;;-0.15;77.46
20860;BME280;10590;48.154;11.514;2023-01-29T04:36:10;96508.78;;;-0.18;76.55
20860;BME280;10590;48.154;11.514;2023-01-29T04:41:21;96532.53;;;-0.01;76.64
20860;BME280;10590;48.154;11.514;2023-01-29T04:46:28;96534.44;;;-0.20;77.41
20860;BME280;10590;48.154;11.514;2023-01-29T04:51:42;96532.63;;;-0.08;77.37
20860;BME280;10590;48.154;11.514;2023-01-29T04:56:51;96526.81;;;-0.10;75.92
20860;BME280;10590;48.154;11.514;2023-01-29T05:01:58;96523.63;;;-0.12;75.61
20860;BME280;10590;48.154;11.514;2023-01-29T05:07:03;96524.09;;;-0.03;76.36
20860;BME280;10590;48.154;11.514;2023-01-29T05:12:09;96540.69;;;-0.21;76.56
20860;BME280;10590;48.154;11.514;2023-01-29T05:17:14;96537.88;;;-0.08;75.89
20860;BME280;10590;48.154;11.514;2023-01-29T05:22:18;96535.69;;;-0.22;76.99
20860;BME280;10590;48.154;11.514;2023-01-29T05:27:27;96544.03;;;-0.14;77.23
20860;BME280;10590;48.154;11.514;2023-01-29T05:32:49;96562.06;;;-0.06;76.61
20860;BME280;10590;48.154;11.514;2023-01-29T05:37:55;96573.63;;;-0.25;76.83
20860;BME280;10590;48.154;11.514;2023-01-29T05:42:57;96576.38;;;-0.20;77.13
20860;BME280;10590;48.154;11.514;2023-01-29T05:47:59;96556.03;;;-0.36;76.57
20860;BME280;10590;48.154;11.514;2023-01-29T05:53:02;96580.44;;;-0.36;77.17
20860;BME280;10590;48.154;11.514;2023-01-29T05:58:05;96568.63;;;-0.26;76.18
20860;BME280;10590;48.154;11.514;2023-01-29T06:03:06;96574.97;;;-0.34;76.24
20860;BME280;10590;48.154;11.514;2023-01-29T06:08:09;96575.66;;;-0.39;77.32
20860;BME280;10590;48.154;11.514;2023-01-29T06:13:11;96566.13;;;-0.51;76.97
20860;BME280;10590;48.154;11.514;2023-01-29T06:18:13;96557.59;;;-0.47;77.97
20860;BME280;10590;48.154;11.514;2023-01-29T06:23:16;96561.16;;;-0.41;77.79
20860;BME280;10590;48.154;11.514;2023-01-29T06:28:17;96561.06;;;-0.35;77.36
20860;BME280;10590;48.154;11.514;2023-01-29T06:33:19;96547.78;;;-0.51;76.54
20860;BME280;10590;48.154;11.514;2023-01-29T06:38:22;96579.47;;;-0.23;77.16
20860;BME280;10590;48.154;11.514;2023-01-29T06:43:24;96580.28;;;-0.11;76.19
20860;BME280;10590;48.154;11.514;2023-01-29T06:48:25;96583.38;;;-0.14;76.22
20860;BME280;10590;48.154;11.514;2023-01-29T06:53:28;96569.97;;;-0.36;76.78
20860;BME280;10590;48.154;11.514;2023-01-29T06:58:30;96575.09;;;-0.29;76.33
20860;BME280;10590;48.154;11.514;2023-01-29T07:03:36;96574.97;;;-0.34;77.32
20860;BME280;10590;48.154;11.514;2023-01-29T07:08:42;96579.41;;;-0.35;77.27
20860;BME280;10590;48.154;11.514;2023-01-29T07:13:43;96567.34;;;-0.36;77.48
20860;BME280;10590;48.154;11.514;2023-01-29T07:18:45;96561.56;;;-0.26;76.93
20860;BME280;10590;48.154;11.514;2023-01-29T07:23:48;96551.06;;;-0.26;76.78
20860;BME280;10590;48.154;11.514;2023-01-29T07:28:50;96550.75;;;-0.18;75.47
20860;BME280;10590;48.154;11.514;2023-01-29T07:33:51;96533.03;;;-0.34;76.56
20860;BME280;10590;48.154;11.514;2023-01-29T07:38:54;96544.94;;;-0.08;75.18
20860;BME280;10590;48.154;11.514;2023-01-29T07:43:56;96540.16;;;-0.11;73.83
20860;BME280;10590;48.154;11.514;2023-01-29T07:48:57;96544.22;;;-0.57;76.42
20860;BME280;10590;48.154;11.514;2023-01-29T07:54:01;96531.22;;;-0.22;74.58
20860;BME280;10590;48.154;11.514;2023-01-29T07:59:02;96526.63;;;-0.38;75.06
20860;BME280;10590;48.154;11.514;2023-01-29T08:04:04;96542.94;;;-0.36;76.20
20860;BME280;10590;48.154;11.514;2023-01-29T08:09:07;96533.59;;;-0.32;75.30
20860;BME280;10590;48.154;11.514;2023-01-29T08:14:08;96528.56;;;-0.34;74.35
20860;BME280;10590;48.154;11.514;2023-01-29T08:19:10;96535.28;;;-0.68;75.78
20860;BME280;10590;48.154;11.514;2023-01-29T08:24:13;96536.50;;;-0.52;74.47
20860;BME280;10590;48.154;11.514;2023-01-29T08:29:15;96544.28;;;-0.04;74.37
20860;BME280;10590;48.154;11.514;2023-01-29T08:34:17;96548.19;;;0.06;71.77
20860;BME280;10590;48.154;11.514;2023-01-29T08:39:20;96559.66;;;-0.07;72.31
20860;BME280;10590;48.154;11.514;2023-01-29T08:44:22;96567.44;;;-0.01;71.36
20860;BME280;10590;48.154;11.514;2023-01-29T08:49:23;96580.34;;;0.01;70.96
20860;BME280;10590;48.154;11.514;2023-01-29T08:54:29;96577.50;;;0.03;71.44
20860;BME280;10590;48.154;11.514;2023-01-29T08:59:33;96583.28;;;-0.07;71.16
20860;BME280;10590;48.154;11.514;2023-01-29T09:04:35;96590.31;;;0.22;70.81
20860;BME280;10590;48.154;11.514;2023-01-29T09:09:38;96574.31;;;0.01;72.00
20860;BME280;10590;48.154;11.514;2023-01-29T09:14:39;96596.16;;;0.36;71.82
20860;BME280;10590;48.154;11.514;2023-01-29T09:19:41;96605.19;;;0.40;71.35
20860;BME280;10590;48.154;11.514;2023-01-29T09:24:44;96612.03;;;0.41;73.39
20860;BME280;10590;48.154;11.514;2023-01-29T09:29:45;96617.03;;;0.31;71.59
20860;BME280;10590;48.154;11.514;2023-01-29T09:34:47;96615.69;;;0.52;71.29
20860;BME280;10590;48.154;11.514;2023-01-29T09:39:50;96625.56;;;0.15;72.84
20860;BME280;10590;48.154;11.514;2023-01-29T09:44:56;96633.50;;;0.50;71.64
20860;BME280;10590;48.154;11.514;2023-01-29T09:50:04;96646.38;;;0.28;73.16
20860;BME280;10590;48.154;11.514;2023-01-29T09:55:16;96640.22;;;0.34;73.03
20860;BME280;10590;48.154;11.514;2023-01-29T10:00:23;96617.28;;;0.41;72.13
20860;BME280;10590;48.154;11.514;2023-01-29T10:05:36;96614.41;;;0.31;71.54
20860;BME280;10590;48.154;11.514;2023-01-29T10:10:48;96629.75;;;0.57;71.84
20860;BME280;10590;48.154;11.514;2023-01-29T10:16:03;96628.72;;;0.47;72.50
20860;BME280;10590;48.154;11.514;2023-01-29T10:21:18;96615.22;;;0.31;72.44
20860;BME280;10590;48.154;11.514;2023-01-29T10:26:30;96608.78;;;0.16;73.47
20860;BME280;10590;48.154;11.514;2023-01-29T10:31:38;96610.78;;;0.44;73.33
20860;BME280;10590;48.154;11.514;2023-01-29T10:36:43;96612.41;;;0.56;72.99
20860;BME280;10590;48.154;11.514;2023-01-29T10:42:11;96611.47;;;0.39;73.47
20860;BME280;10590;48.154;11.514;2023-01-29T10:47:37;96601.28;;;0.19;71.77
20860;BME280;10590;48.154;11.514;2023-01-29T10:52:51;96603.22;;;0.24;71.21
20860;BME280;10590;48.154;11.514;2023-01-29T10:58:08;96603.69;;;0.32;73.03
20860;BME280;10590;48.154;11.514;2023-01-29T11:03:14;96592.38;;;0.32;72.21
20860;BME280;10590;48.154;11.514;2023-01-29T11:08:20;96595.59;;;0.34;70.62
20860;BME280;10590;48.154;11.514;2023-01-29T11:13:28;96591.91;;;0.12;72.93
20860;BME280;10590;48.154;11.514;2023-01-29T11:18:50;96578.47;;;0.31;72.39
20860;BME280;10590;48.154;11.514;2023-01-29T11:24:05;96584.84;;;0.24;70.59
20860;BME280;10590;48.154;11.514;2023-01-29T11:29:29;96569.00;;;0.30;72.92
20860;BME280;10590;48.154;11.514;2023-01-29T11:34:32;96569.09;;;0.24;72.26
20860;BME280;10590;48.154;11.514;2023-01-29T11:39:37;96569.91;;;0.36;70.21
20860;BME280;10590;48.154;11.514;2023-01-29T11:44:44;96562.63;;;1.65;71.26
20860;BME280;10590;48.154;11.514;2023-01-29T11:49:47;96550.94;;;0.11;70.48
20860;BME280;10590;48.154;11.514;2023-01-29T11:54:52;96526.19;;;0.07;71.40
20860;BME280;10590;48.154;11.514;2023-01-29T11:59:58;96488.31;;;0.14;71.62
20860;BME280;10590;48.154;11.514;2023-01-29T12:05:04;96490.94;;;0.03;72.59
20860;BME280;10590;48.154;11.514;2023-01-29T12:10:29;96480.84;;;-0.01;71.24
20860;BME280;10590;48.154;11.514;2023-01-29T12:15:32;96486.44;;;-0.09;73.14
20860;BME280;10590;48.154;11.514;2023-01-29T12:20:37;96479.66;;;0.25;72.77
20860;BME280;10590;48.154;11.514;2023-01-29T12:25:48;96491.97;;;0.02;72.68
20860;BME280;10590;48.154;11.514;2023-01-29T12:31:07;96503.59;;;0.41;72.67
20860;BME280;10590;48.154;11.514;2023-01-29T12:36:17;96502.47;;;0.48;72.29
20860;BME280;10590;48.154;11.514;2023-01-29T12:41:29;96479.97;;;0.52;72.11
20860;BME280;10590;48.154;11.514;2023-01-29T12:46:37;96486.13;;;0.46;72.22
20860;BME280;10590;48.154;11.514;2023-01-29T12:51:45;96468.56;;;0.35;72.05
20860;BME280;10590;48.154;11.514;2023-01-29T12:56:52;96468.34;;;0.25;71.70
20860;BME280;10590;48.154;11.514;2023-01-29T13:01:59;96458.75;;;0.07;72.51
20860;BME280;10590;48.154;11.514;2023-01-29T13:07:09;96442.06;;;-0.10;73.49
20860;BME280;10590;48.154;11.514;2023-01-29T13:12:14;96431.94;;;-0.07;72.97
20860;BME280;10590;48.154;11.514;2023-01-29T13:17:23;96421.91;;;0.02;73.63
20860;BME280;10590;48.154;11.514;2023-01-29T13:22:28;96410.38;;;-0.09;73.42
20860;BME280;10590;48.154;11.514;2023-01-29T13:27:33;96417.69;;;0.13;73.39
20860;BME280;10590;48.154;11.514;2023-01-29T13:32:37;96410.41;;;0.03;73.40
20860;BME280;10590;48.154;11.514;2023-01-29T13:37:41;96412.09;;;-0.03;73.15
20860;BME280;10590;48.154;11.514;2023-01-29T13:42:48;96407.53;;;-0.19;74.16
20860;BME280;10590;48.154;11.514;2023-01-29T13:48:08;96400.56;;;-0.37;73.22
20860;BME280;10590;48.154;11.514;2023-01-29T13:53:19;96393.50;;;0.11;72.18
20860;BME280;10590;48.154;11.514;2023-01-29T13:58:52;96388.03;;;0.12;72.91
20860;BME280;10590;48.154;11.514;2023-01-29T14:03:56;96383.00;;;0.11;72.47
20860;BME280;10590;48.154;11.514;2023-01-29T14:08:57;96387.94;;;0.07;72.93
20860;BME280;10590;48.154;11.514;2023-01-29T14:14:00;96379.59;;;-0.25;73.47
20860;BME280;10590;48.154;11.514;2023-01-29T14:19:04;96368.06;;;-0.36;74.55
20860;BME280;10590;48.154;11.514;2023-01-29T14:24:15;96371.94;;;-0.38;74.28
20860;BME280;10590;48.154;11.514;2023-01-29T14:29:22;96380.03;;;-0.51;74.15
20860;BME280;10590;48.154;11.514;2023-01-29T14:34:28;96379.13;;;-0.45;74.76
20860;BME280;10590;48.154;11.514;2023-01-29T14:39:42;96386.31;;;-0.29;73.04
20860;BME280;10590;48.154;11.514;2023-01-29T14:44:56;96403.97;;;-0.36;74.15
20860;BME280;10590;48.154;11.514;2023-01-29T14:50:01;96414.34;;;-0.41;74.61
20860;BME280;10590;48.154;11.514;2023-01-29T14:55:06;96414.00;;;-0.33;74.47
20860;BME280;10590;48.154;11.514;2023-01-29T15:00:16;96405.66;;;-0.65;75.65
20860;BME280;10590;48.154;11.514;2023-01-29T15:05:23;96395.19;;;-0.53;75.56
20860;BME280;10590;48.154;11.514;2023-01-29T15:10:42;96391.22;;;-0.33;74.71
20860;BME280;10590;48.154;11.514;2023-01-29T15:15:47;96388.94;;;-0.17;73.72
20860;BME280;10590;48.154;11.514;2023-01-29T15:21:02;96388.38;;;-0.31;74.21
20860;BME280;10590;48.154;11.514;2023-01-29T15:26:07;96396.09;;;-0.48;73.98
20860;BME280;10590;48.154;11.514;2023-01-29T15:31:12;96391.88;;;-0.60;75.19
20860;BME280;10590;48.154;11.514;2023-01-29T15:36:20;96397.34;;;-0.50;75.07
20860;BME280;10590;48.154;11.514;2023-01-29T15:41:22;96393.63;;;-0.84;76.08
20860;BME280;10590;48.154;11.514;2023-01-29T15:46:26;96408.25;;;-0.77;75.74
20860;BME280;10590;48.154;11.514;2023-01-29T15:51:30;96406.88;;;-0.68;75.52
20860;BME280;10590;48.154;11.514;2023-01-29T15:56:33;96408.03;;;-0.63;75.63
20860;BME280;10590;48.154;11.514;2023-01-29T16:01:37;96406.00;;;-0.61;75.87
20860;BME280;10590;48.154;11.514;2023-01-29T16:06:40;96384.78;;;-0.72;76.20
20860;BME280;10590;48.154;11.514;2023-01-29T16:11:46;96408.41;;;-0.48;75.42
20860;BME280;10590;48.154;11.514;2023-01-29T16:16:49;96412.72;;;-0.66;75.82
20860;BME280;10590;48.154;11.514;2023-01-29T16:21:57;96407.25;;;-0.94;76.38
20860;BME280;10590;48.154;11.514;2023-01-29T16:27:02;96414.22;;;-0.88;76.41
20860;BME280;10590;48.154;11.514;2023-01-29T16:32:09;96422.63;;;-0.68;77.10
20860;BME280;10590;48.154;11.514;2023-01-29T16:37:21;96428.28;;;-1.01;76.63
20860;BME280;10590;48.154;11.514;2023-01-29T16:42:28;96432.63;;;-1.24;77.18
20860;BME280;10590;48.154;11.514;2023-01-29T16:47:32;96442.34;;;-1.13;76.71
20860;BME280;10590;48.154;11.514;2023-01-29T16:52:35;96442.72;;;-1.10;76.57
20860;BME280;10590;48.154;11.514;2023-01-29T16:57:38;96455.84;;;-0.98;76.84
20860;BME280;10590;48.154;11.514;2023-01-29T17:02:40;96452.97;;;-1.08;77.09
20860;BME280;10590;48.154;11.514;2023-01-29T17:07:45;96463.34;;;-1.02;77.53
20860;BME280;10590;48.154;11.514;2023-01-29T17:12:52;96463.81;;;-1.05;77.32
20860;BME280;10590;48.154;11.514;2023-01-29T17:17:54;96456.81;;;-1.11;77.59
20860;BME280;10590;48.154;11.514;2023-01-29T17:22:57;96467.09;;;-1.27;77.89
20860;BME280;10590;48.154;11.514;2023-01-29T17:27:59;96464.69;;;-1.11;77.85
20860;BME280;10590;48.154;11.514;2023-01-29T17:33:09;96461.41;;;-1.06;77.69
20860;BME280;10590;48.154;11.514;2023-01-29T17:38:13;96458.31;;;-1.33;77.65
20860;BME280;10590;48.154;11.514;2023-01-29T17:43:15;96453.84;;;-1.14;77.48
20860;BME280;10590;48.154;11.514;2023-01-29T17:48:19;96465.00;;;-1.19;77.97
20860;BME280;10590;48.154;11.514;2023-01-29T17:53:23;96459.25;;;-1.27;77.17
20860;BME280;10590;48.154;11.514;2023-01-29T17:58:26;96460.38;;;-1.05;77.06
20860;BME280;10590;48.154;11.514;2023-01-29T18:03:27;96454.44;;;-1.12;77.60
20860;BME280;10590;48.154;11.514;2023-01-29T18:08:32;96452.41;;;-1.29;77.70
20860;BME280;10590;48.154;11.514;2023-01-29T18:13:34;96445.59;;;-1.30;76.44
20860;BME280;10590;48.154;11.514;2023-01-29T18:18:36;96444.13;;;-1.25;77.57
20860;BME280;10590;48.154;11.514;2023-01-29T18:23:39;96449.28;;;-1.37;77.46
20860;BME280;10590;48.154;11.514;2023-01-29T18:28:41;96441.16;;;-1.47;77.19
20860;BME280;10590;48.154;11.514;2023-01-29T18:33:43;96443.69;;;-1.41;76.62
20860;BME280;10590;48.154;11.514;2023-01-29T18:38:46;96439.63;;;-1.37;76.93
20860;BME280;10590;48.154;11.514;2023-01-29T18:43:47;96430.91;;;-1.31;76.72
20860;BME280;10590;48.154;11.514;2023-01-29T18:48:50;96446.03;;;-1.33;77.04
20860;BME280;10590;48.154;11.514;2023-01-29T18:53:53;96451.53;;;-1.22;77.02
20860;BME280;10590;48.154;11.514;2023-01-29T18:58:55;96442.81;;;-1.35;76.69
20860;BME280;10590;48.154;11.514;2023-01-29T19:03:56;96441.25;;;-1.54;77.68
20860;BME280;10590;48.154;11.514;2023-01-29T19:09:00;96441.53;;;-1.62;77.71
20860;BME280;10590;48.154;11.514;2023-01-29T19:14:04;96442.09;;;-1.60;78.05
20860;BME280;10590;48.154;11.514;2023-01-29T19:19:05;96449.00;;;-1.66;78.65
20860;BME280;10590;48.154;11.514;2023-01-29T19:24:09;96435.59;;;-1.76;78.44
20860;BME280;10590;48.154;11.514;2023-01-29T19:29:11;96452.53;;;-1.78;78.54
20860;BME280;10590;48.154;11.514;2023-01-29T19:34:13;96443.88;;;-1.97;78.99
20860;BME280;10590;48.154;11.514;2023-01-29T19:39:16;96442.91;;;-2.03;79.35
20860;BME280;10590;48.154;11.514;2023-01-29T19:44:17;96442.91;;;-2.03;78.74
20860;BME280;10590;48.154;11.514;2023-01-29T19:49:19;96429.59;;;-2.19;79.17
20860;BME280;10590;48.154;11.514;2023-01-29T19:54:22;96405.75;;;-2.30;79.43
20860;BME280;10590;48.154;11.514;2023-01-29T19:59:26;96420.78;;;-2.25;79.71
20860;BME280;10590;48.154;11.514;2023-01-29T20:04:28;96411.66;;;-2.16;79.26
20860;BME280;10590;48.154;11.514;2023-01-29T20:09:32;96407.41;;;-2.35;80.21
20860;BME280;10590;48.154;11.514;2023-01-29T20:14:34;96414.25;;;-2.34;80.86
20860;BME280;10590;48.154;11.514;2023-01-29T20:19:36;96407.09;;;-2.45;80.68
20860;BME280;10590;48.154;11.514;2023-01-29T20:24:39;96385.53;;;-2.66;80.79
20860;BME280;10590;48.154;11.514;2023-01-29T20:29:41;96414.56;;;-2.49;80.69
20860;BME280;10590;48.154;11.514;2023-01-29T20:34:44;96402.38;;;-2.62;80.72
20860;BME280;10590;48.154;11.514;2023-01-29T20:39:50;96406.94;;;-2.50;80.72
20860;BME280;10590;48.154;11.514;2023-01-29T20:44:51;96398.59;;;-2.66;80.97
20860;BME280;10590;48.154;11.514;2023-01-29T20:49:53;96396.25;;;-2.74;81.23
20860;BME280;10590;48.154;11.514;2023-01-29T20:54:56;96396.75;;;-2.59;80.80
20860;BME280;10590;48.154;11.514;2023-01-29T20:59:58;96382.16;;;-2.73;80.45
20860;BME280;10590;48.154;11.514;2023-01-29T21:05:00;96385.69;;;-2.85;81.19
20860;BME280;10590;48.154;11.514;2023-01-29T21:10:04;96383.13;;;-2.92;81.28
20860;BME280;10590;48.154;11.514;2023-01-29T21:15:07;96388.94;;;-2.90;81.23
20860;BME280;10590;48.154;11.514;2023-01-29T21:20:10;96397.97;;;-2.93;81.68
20860;BME280;10590;48.154;11.514;2023-01-29T21:25:13;96357.78;;;-3.16;82.43
20860;BME280;10590;48.154;11.514;2023-01-29T21:30:16;96385.38;;;-3.02;81.40
20860;BME280;10590;48.154;11.514;2023-01-29T21:35:18;96389.59;;;-3.01;81.58
20860;BME280;10590;48.154;11.514;2023-01-29T21:40:21;96396.09;;;-3.10;81.60
20860;BME280;10590;48.154;11.514;2023-01-29T21:45:24;96383.47;;;-3.13;82.23
20860;BME280;10590;48.154;11.514;2023-01-29T21:50:26;96391.25;;;-3.07;81.92
20860;BME280;10590;48.154;11.514;2023-01-29T21:55:29;96386.53;;;-3.23;82.24
20860;BME280;10590;48.154;11.514;2023-01-29T22:00:31;96380.50;;;-3.24;83.10
20860;BME280;10590;48.154;11.514;2023-01-29T22:05:33;96380.13;;;-3.27;82.91
20860;BME280;10590;48.154;11.514;2023-01-29T22:10:36;96359.91;;;-3.38;82.74
20860;BME280;10590;48.154;11.514;2023-01-29T22:15:43;96374.06;;;-3.21;82.62
20860;BME280;10590;48.154;11.514;2023-01-29T22:20:45;96370.47;;;-3.27;82.42
20860;BME280;10590;48.154;11.514;2023-01-29T22:25:48;96365.69;;;-3.30;82.48
20860;BME280;10590;48.154;11.514;2023-01-29T22:30:50;96369.47;;;-3.26;82.23
20860;BME280;10590;48.154;11.514;2023-01-29T22:35:52;96354.41;;;-3.24;82.60
20860;BME280;10590;48.154;11.514;2023-01-29T22:40:56;96347.63;;;-3.31;82.04
20860;BME280;10590;48.154;11.514;2023-01-29T22:45:58;96331.22;;;-3.38;82.68
20860;BME280;10590;48.154;11.514;2023-01-29T22:50:59;96319.59;;;-3.42;82.29
20860;BME280;10590;48.154;11.514;2023-01-29T22:56:11;96314.81;;;-3.45;82.60
20860;BME280;10590;48.154;11.514;2023-01-29T23:01:12;96291.75;;;-3.55;82.36
20860;BME280;10590;48.154;11.514;2023-01-29T23:06:14;96287.72;;;-3.44;81.91
20860;BME280;10590;48.154;11.514;2023-01-29T23:11:19;96286.22;;;-3.34;82.01
20860;BME280;10590;48.154;11.514;2023-01-29T23:16:23;96292.84;;;-3.31;81.82
20860;BME280;10590;48.154;11.514;2023-01-29T23:21:26;96291.06;;;-3.37;81.86
20860;BME280;10590;48.154;11.514;2023-01-29T23:26:29;96276.09;;;-3.55;81.96
20860;BME280;10590;48.154;11.514;2023-01-29T23:31:48;96270.88;;;-3.55;82.07
20860;BME280;10590;48.154;11.514;2023-01-29T23:36:50;96276.88;;;-3.48;82.03
20860;BME280;10590;48.154;11.514;2023-01-29T23:41:53;96277.13;;;-3.56;81.81
20860;BME280;10590;48.154;11.514;2023-01-29T23:46:54;96255.91;;;-3.66;81.91
20860;BME280;10590;48.154;11.514;2023-01-29T23:51:56;96267.56;;;-3.69;82.53
20860;BME280;10590;48.154;11.514;2023-01-29T23:56:59;96255.50;;;-3.63;82.17
